Aérodrome :
LOGIN :

S'inscrire | Disclaimer

   EN    FR    IT 

 










Légende :    VFR   VFR Marginal   IFR   IFR Intensif   IFR Très Intensif
Visi : 
Plafond : 
>= 8 km
>= 3000ft
5 à 8 km
1000 à 3000 ft
1500m à 5 km
500 à 1000 ft
800 à 1500m
200 à 500 ft
< 800m
< 200 ft
Symboles :   Orages  Brouillard  Fortes neiges  Fortes précipitations  Vent > 20 kt
SIGMETs :   Divers  Orages  Givrage  Turbulence  Onde Orograph.  Cendres Volcan.






- Altitude de l'aérodrome : 314 ft
- Code IATA : OTP


LROP - Bucarest - Henri Coanda

DERNIER METAR :
  • 101800Z 36007KT CAVOK 25/15 Q1014 NOSIG

METARs EXPIRÉS :
  • 101730Z 34011KT CAVOK 25/15 Q1014 NOSIG
  • 101700Z 33009KT 300V010 9999 FEW050CB 26/15 Q1014 NOSIG
  • 101630Z 35011KT 9999 FEW050CB 26/15 Q1014 NOSIG
  • 101600Z 01010KT 9999 FEW050CB 29/13 Q1014 NOSIG
  • 101530Z 01008KT 9999 FEW050CB 29/12 Q1014 NOSIG

TAF TAF LROP
Valide du 10 à 18h jusqu'au 11 à 18h UTC


101700Z 1018/1118 35010KT CAVOK
TEMPO 1018/1019 SCT045CB
BECMG 1021/1023 VRB04KT
TEMPO 1113/1117 SCT040CB



MET'MAP, la Météo Aéronautique d'un coup d'oeil ! - Copyright ORBIFLY Décembre 2007 - Disclaimer

ORBIFLY MET'MAP TEAM :

Programmation & Développement : Alexandra Zaïnal
Sur une idée originale de : Baudouin d'Aumeries
Assistance à la programmation : Marc-Olivier Méhu
Soutien technique & logistique : Manuel Goepfert

Contact : metmap@orbifly.com




SOURCES & CREDITS :

   NOAA